createdAt,value
2018-04-12T00:00:05.740Z,966.15
2018-04-12T00:01:05.205Z,966.06
2018-04-12T00:02:05.803Z,966.09
2018-04-12T00:03:05.642Z,965.98
2018-04-12T00:04:05.530Z,966.06
2018-04-12T00:05:05.804Z,966.12
2018-04-12T00:06:05.527Z,966.06
2018-04-12T00:07:05.926Z,966.06
2018-04-12T00:08:05.714Z,965.98
2018-04-12T00:09:05.422Z,965.95
2018-04-12T00:10:05.189Z,966.06
2018-04-12T00:11:05.144Z,965.92
2018-04-12T00:12:05.240Z,966.04
2018-04-12T00:13:05.532Z,965.98
2018-04-12T00:14:05.230Z,965.98
2018-04-12T00:15:05.217Z,965.92
2018-04-12T00:16:05.116Z,965.84
2018-04-12T00:17:05.731Z,966.01
2018-04-12T00:18:05.030Z,965.92
2018-04-12T00:19:05.988Z,965.92
2018-04-12T00:20:05.716Z,965.92
2018-04-12T00:21:05.206Z,965.84
2018-04-12T00:22:05.157Z,965.89
2018-04-12T00:23:05.667Z,965.78
2018-04-12T00:24:05.676Z,965.81
2018-04-12T00:25:05.446Z,965.75
2018-04-12T00:26:05.676Z,965.95
2018-04-12T00:27:05.273Z,965.84
2018-04-12T00:28:05.036Z,965.89
2018-04-12T00:29:05.354Z,965.84
2018-04-12T00:30:05.319Z,965.75
2018-04-12T00:31:10.326Z,965.81
2018-04-12T00:32:10.439Z,965.84
2018-04-12T00:33:05.649Z,965.78
2018-04-12T00:34:05.229Z,965.78
2018-04-12T00:35:05.028Z,965.83
2018-04-12T00:36:05.106Z,965.72
2018-04-12T00:37:05.237Z,965.78
2018-04-12T00:38:05.341Z,965.78
2018-04-12T00:39:05.125Z,965.75
2018-04-12T00:40:05.681Z,965.78
2018-04-12T00:41:05.774Z,965.72
2018-04-12T00:42:06.079Z,965.72
2018-04-12T00:43:05.425Z,965.78
2018-04-12T00:44:05.549Z,965.66
2018-04-12T00:45:05.510Z,965.72
2018-04-12T00:46:05.038Z,965.47
2018-04-12T00:47:05.765Z,965.69
2018-04-12T00:48:05.153Z,965.50
2018-04-12T00:49:06.106Z,965.59
2018-04-12T00:50:05.263Z,965.59
2018-04-12T00:51:05.422Z,965.53
2018-04-12T00:52:05.103Z,965.59
2018-04-12T00:53:05.264Z,965.59
2018-04-12T00:54:05.396Z,965.61
2018-04-12T00:55:05.177Z,965.56
2018-04-12T00:56:05.633Z,965.72
2018-04-12T00:57:05.562Z,965.60
2018-04-12T00:58:05.160Z,965.55
2018-04-12T00:59:05.841Z,965.60
2018-04-12T01:00:05.677Z,965.50
2018-04-12T01:01:05.225Z,965.66
2018-04-12T01:02:05.351Z,965.52
2018-04-12T01:03:05.665Z,965.52
2018-04-12T01:04:05.653Z,965.50
2018-04-12T01:05:05.823Z,965.50
2018-04-12T01:06:05.522Z,965.46
2018-04-12T01:07:06.340Z,965.55
2018-04-12T01:08:05.398Z,965.41
2018-04-12T01:09:05.427Z,965.55
2018-04-12T01:10:05.215Z,965.43
2018-04-12T01:11:05.433Z,965.40
2018-04-12T01:12:05.035Z,965.55
2018-04-12T01:13:05.631Z,965.49
2018-04-12T01:14:05.744Z,965.52
2018-04-12T01:15:05.583Z,965.43
2018-04-12T01:16:05.411Z,965.52
2018-04-12T01:17:05.318Z,965.54
2018-04-12T01:18:06.903Z,965.29
2018-04-12T01:19:04.899Z,965.57
2018-04-12T01:20:05.953Z,965.34
2018-04-12T01:21:05.942Z,965.40
2018-04-12T01:22:05.222Z,965.43
2018-04-12T01:23:05.190Z,965.48
2018-04-12T01:24:06.275Z,965.40
2018-04-12T01:25:05.488Z,965.40
2018-04-12T01:26:05.912Z,965.42
2018-04-12T01:27:05.232Z,965.51
2018-04-12T01:28:05.100Z,965.48
2018-04-12T01:29:05.912Z,965.51
2018-04-12T01:30:05.462Z,965.42
2018-04-12T01:31:05.553Z,965.42
2018-04-12T01:32:05.683Z,965.42
2018-04-12T01:33:05.746Z,965.45
2018-04-12T01:34:10.445Z,965.45
2018-04-12T01:35:05.816Z,965.62
2018-04-12T01:36:05.393Z,965.40
2018-04-12T01:37:04.975Z,965.46
2018-04-12T01:38:05.793Z,965.32
2018-04-12T01:39:05.193Z,965.55
2018-04-12T01:40:04.916Z,965.47
2018-04-12T01:41:05.022Z,965.44
2018-04-12T01:42:05.726Z,965.36
2018-04-12T01:43:05.836Z,965.39
2018-04-12T01:44:05.603Z,965.51
2018-04-12T01:45:05.006Z,965.37
2018-04-12T01:46:05.080Z,965.43
2018-04-12T01:47:05.820Z,965.46
2018-04-12T01:48:05.269Z,965.49
2018-04-12T01:49:05.413Z,965.58
2018-04-12T01:50:05.141Z,965.38
2018-04-12T01:51:05.066Z,965.36
2018-04-12T01:52:05.110Z,965.42
2018-04-12T01:53:05.474Z,965.45
2018-04-12T01:54:05.262Z,965.56
2018-04-12T01:55:05.947Z,965.60
2018-04-12T01:56:05.573Z,965.46
2018-04-12T01:57:05.598Z,965.52
2018-04-12T01:58:06.239Z,965.41
2018-04-12T01:59:05.237Z,965.52
2018-04-12T02:00:05.197Z,965.41
2018-04-12T02:01:05.864Z,965.47
2018-04-12T02:02:05.454Z,965.56
2018-04-12T02:03:05.267Z,965.53
2018-04-12T02:04:05.314Z,965.34
2018-04-12T02:05:05.592Z,965.31
2018-04-12T02:06:05.310Z,965.40
2018-04-12T02:07:06.024Z,965.34
2018-04-12T02:08:05.420Z,965.31
2018-04-12T02:09:06.184Z,965.43
2018-04-12T02:10:05.931Z,965.43
2018-04-12T02:11:05.513Z,965.29
2018-04-12T02:12:05.635Z,965.23
2018-04-12T02:13:05.782Z,965.12
2018-04-12T02:14:05.894Z,965.18
2018-04-12T02:15:05.629Z,965.12
2018-04-12T02:16:05.654Z,965.13
2018-04-12T02:17:05.347Z,965.13
2018-04-12T02:18:05.787Z,965.10
2018-04-12T02:19:05.245Z,965.24
2018-04-12T02:20:05.238Z,965.21
2018-04-12T02:21:05.886Z,965.10
2018-04-12T02:22:06.088Z,965.22
2018-04-12T02:23:10.151Z,965.13
2018-04-12T02:24:05.276Z,965.08
2018-04-12T02:25:05.014Z,965.13
2018-04-12T02:26:05.475Z,965.02
2018-04-12T02:27:05.978Z,964.97
2018-04-12T02:28:06.007Z,964.91
2018-04-12T02:29:05.504Z,965.00
2018-04-12T02:30:05.211Z,964.89
2018-04-12T02:31:05.802Z,964.86
2018-04-12T02:32:05.556Z,964.92
2018-04-12T02:33:05.302Z,965.03
2018-04-12T02:34:05.803Z,964.79
2018-04-12T02:35:05.145Z,964.95
2018-04-12T02:36:05.243Z,964.93
2018-04-12T02:37:05.069Z,965.01
2018-04-12T02:38:05.638Z,965.01
2018-04-12T02:39:05.181Z,965.02
2018-04-12T02:40:05.979Z,964.96
2018-04-12T02:41:10.878Z,965.05
2018-04-12T02:42:06.038Z,965.05
2018-04-12T02:43:05.354Z,964.99
2018-04-12T02:44:05.424Z,965.08
2018-04-12T02:45:06.123Z,965.11
2018-04-12T02:46:05.594Z,965.02
2018-04-12T02:47:05.539Z,965.02
2018-04-12T02:48:05.399Z,965.00
2018-04-12T02:49:06.043Z,964.88
2018-04-12T02:50:05.270Z,964.97
2018-04-12T02:51:05.828Z,964.97
2018-04-12T02:52:10.329Z,965.00
2018-04-12T02:53:05.117Z,964.95
2018-04-12T02:54:05.776Z,964.92
2018-04-12T02:55:05.321Z,964.98
2018-04-12T02:56:05.182Z,964.92
2018-04-12T02:57:05.210Z,964.79
2018-04-12T02:58:05.827Z,964.76
2018-04-12T02:59:05.578Z,964.76
2018-04-12T03:00:05.799Z,964.76
2018-04-12T03:01:05.619Z,964.73
2018-04-12T03:02:05.617Z,964.71
2018-04-12T03:03:05.095Z,964.56
2018-04-12T03:04:04.968Z,964.45
2018-04-12T03:05:04.951Z,964.71
2018-04-12T03:06:04.967Z,964.62
2018-04-12T03:07:05.803Z,964.59
2018-04-12T03:08:05.440Z,964.68
2018-04-12T03:09:05.526Z,964.68
2018-04-12T03:10:10.212Z,964.62
2018-04-12T03:11:05.148Z,964.56
2018-04-12T03:12:05.834Z,964.51
2018-04-12T03:13:06.754Z,964.53
2018-04-12T03:14:05.842Z,964.48
2018-04-12T03:15:05.355Z,964.50
2018-04-12T03:16:05.167Z,964.50
2018-04-12T03:17:05.860Z,964.56
2018-04-12T03:18:05.726Z,964.50
2018-04-12T03:19:10.498Z,964.44
2018-04-12T03:20:05.139Z,964.42
2018-04-12T03:21:05.131Z,964.36
2018-04-12T03:22:05.169Z,964.42
2018-04-12T03:23:05.291Z,964.50
2018-04-12T03:24:07.159Z,964.36
2018-04-12T03:25:05.258Z,964.42
2018-04-12T03:26:05.690Z,964.31
2018-04-12T03:27:09.095Z,964.34
2018-04-12T03:28:05.092Z,964.51
2018-04-12T03:29:05.061Z,964.45
2018-04-12T03:30:05.389Z,964.45
2018-04-12T03:31:05.583Z,964.51
2018-04-12T03:32:05.583Z,964.57
2018-04-12T03:33:05.045Z,964.40
2018-04-12T03:34:05.859Z,964.54
2018-04-12T03:35:05.251Z,964.49
2018-04-12T03:36:05.153Z,964.40
2018-04-12T03:37:05.595Z,964.43
2018-04-12T03:38:05.704Z,964.29
2018-04-12T03:39:06.599Z,964.35
2018-04-12T03:40:05.632Z,964.27
2018-04-12T03:41:05.318Z,964.24
2018-04-12T03:42:06.045Z,964.24
2018-04-12T03:43:05.341Z,964.13
2018-04-12T03:44:05.431Z,964.19
2018-04-12T03:45:05.512Z,964.22
2018-04-12T03:46:05.684Z,964.27
2018-04-12T03:47:05.351Z,964.33
2018-04-12T03:48:05.218Z,964.30
2018-04-12T03:49:07.746Z,964.28
2018-04-12T03:50:05.731Z,964.25
2018-04-12T03:51:05.427Z,964.33
2018-04-12T03:52:05.912Z,964.25
2018-04-12T03:53:05.948Z,964.36
2018-04-12T03:54:05.742Z,964.25
2018-04-12T03:55:05.367Z,964.42
2018-04-12T03:56:05.152Z,964.28
2018-04-12T03:57:05.660Z,964.42
2018-04-12T03:58:05.474Z,964.45
2018-04-12T03:59:05.365Z,964.31
2018-04-12T04:00:05.903Z,964.48
2018-04-12T04:01:05.444Z,964.40
2018-04-12T04:02:05.408Z,964.42
2018-04-12T04:03:05.930Z,964.62
2018-04-12T04:04:05.482Z,964.40
2018-04-12T04:05:05.504Z,964.65
2018-04-12T04:06:05.581Z,964.57
2018-04-12T04:07:05.543Z,964.48
2018-04-12T04:08:05.794Z,964.60
2018-04-12T04:09:05.467Z,964.51
2018-04-12T04:10:05.261Z,964.40
2018-04-12T04:11:06.124Z,964.54
2018-04-12T04:12:05.457Z,964.51
2018-04-12T04:13:06.019Z,964.54
2018-04-12T04:14:05.828Z,964.57
2018-04-12T04:15:05.857Z,964.43
2018-04-12T04:16:05.601Z,964.51
2018-04-12T04:17:05.318Z,964.40
2018-04-12T04:18:05.466Z,964.63
2018-04-12T04:19:05.465Z,964.57
2018-04-12T04:20:05.642Z,964.59
2018-04-12T04:21:06.183Z,964.62
2018-04-12T04:22:05.337Z,964.54
2018-04-12T04:23:05.386Z,964.54
2018-04-12T04:24:05.296Z,964.65
2018-04-12T04:25:06.261Z,964.59
2018-04-12T04:26:05.412Z,964.65
2018-04-12T04:27:06.068Z,964.65
2018-04-12T04:28:05.959Z,964.53
2018-04-12T04:29:05.477Z,964.59
2018-04-12T04:30:05.478Z,964.64
2018-04-12T04:31:05.274Z,964.59
2018-04-12T04:32:05.913Z,964.53
2018-04-12T04:33:05.971Z,964.58
2018-04-12T04:34:05.803Z,964.50
2018-04-12T04:35:05.149Z,964.58
2018-04-12T04:36:10.032Z,964.64
2018-04-12T04:37:05.760Z,964.67
2018-04-12T04:38:05.046Z,964.50
2018-04-12T04:39:05.026Z,964.50
2018-04-12T04:40:05.312Z,964.55
2018-04-12T04:41:05.092Z,964.50
2018-04-12T04:42:06.430Z,964.61
2018-04-12T04:43:06.091Z,964.61
2018-04-12T04:44:05.484Z,964.63
2018-04-12T04:45:06.788Z,964.60
2018-04-12T04:46:05.928Z,964.43
2018-04-12T04:47:05.520Z,964.51
2018-04-12T04:48:05.231Z,964.46
2018-04-12T04:49:05.408Z,964.48
2018-04-12T04:50:05.192Z,964.40
2018-04-12T04:51:05.894Z,964.48
2018-04-12T04:52:05.437Z,964.42
2018-04-12T04:53:05.638Z,964.34
2018-04-12T04:54:05.166Z,964.22
2018-04-12T04:55:05.888Z,964.42
2018-04-12T04:56:05.640Z,964.34
2018-04-12T04:57:05.868Z,964.48
2018-04-12T04:58:05.553Z,964.36
2018-04-12T04:59:05.675Z,964.28
2018-04-12T05:00:06.745Z,964.33
2018-04-12T05:01:05.787Z,964.22
2018-04-12T05:02:06.029Z,964.28
2018-04-12T05:03:05.518Z,964.19
2018-04-12T05:04:05.279Z,964.22
2018-04-12T05:05:05.758Z,964.22
2018-04-12T05:06:05.720Z,964.22
2018-04-12T05:07:05.569Z,964.36
2018-04-12T05:08:05.487Z,964.36
2018-04-12T05:09:05.224Z,964.30
2018-04-12T05:10:05.739Z,964.19
2018-04-12T05:11:05.787Z,964.16
2018-04-12T05:12:05.887Z,964.25
2018-04-12T05:13:06.027Z,964.25
2018-04-12T05:14:05.843Z,964.28
2018-04-12T05:15:05.053Z,964.22
2018-04-12T05:16:05.029Z,964.22
2018-04-12T05:17:11.663Z,964.19
2018-04-12T05:18:05.545Z,964.13
2018-04-12T05:19:05.651Z,964.27
2018-04-12T05:20:05.231Z,964.19
2018-04-12T05:21:05.226Z,964.07
2018-04-12T05:22:06.033Z,964.21
2018-04-12T05:23:05.791Z,964.16
2018-04-12T05:24:05.469Z,964.27
2018-04-12T05:25:05.486Z,964.18
2018-04-12T05:26:05.985Z,964.16
2018-04-12T05:27:05.592Z,964.18
2018-04-12T05:28:05.241Z,964.18
2018-04-12T05:29:10.992Z,964.09
2018-04-12T05:30:06.000Z,964.15
2018-04-12T05:31:05.916Z,964.23
2018-04-12T05:32:05.297Z,964.06
2018-04-12T05:33:05.416Z,964.23
2018-04-12T05:34:05.741Z,964.17
2018-04-12T05:35:05.592Z,964.11
2018-04-12T05:36:05.292Z,964.19
2018-04-12T05:37:10.183Z,964.13
2018-04-12T05:38:05.373Z,964.24
2018-04-12T05:39:05.786Z,964.18
2018-04-12T05:40:05.010Z,964.15
2018-04-12T05:41:09.981Z,964.20
2018-04-12T05:42:05.169Z,964.33
2018-04-12T05:43:05.755Z,964.21
2018-04-12T05:44:05.493Z,964.41
2018-04-12T05:45:05.437Z,964.23
2018-04-12T05:46:05.113Z,964.29
2018-04-12T05:47:05.697Z,964.34
2018-04-12T05:48:05.334Z,964.19
2018-04-12T05:49:05.360Z,964.19
2018-04-12T05:50:05.226Z,964.30
2018-04-12T05:51:05.947Z,964.33
2018-04-12T05:52:05.504Z,964.21
2018-04-12T05:53:05.193Z,964.33
2018-04-12T05:54:10.773Z,964.41
2018-04-12T05:55:05.794Z,964.35
2018-04-12T05:56:05.610Z,964.27
2018-04-12T05:57:05.516Z,964.35
2018-04-12T05:58:05.818Z,964.35
2018-04-12T05:59:05.878Z,964.40
2018-04-12T06:00:05.800Z,964.37
2018-04-12T06:01:05.703Z,964.37
2018-04-12T06:02:05.557Z,964.23
2018-04-12T06:03:05.660Z,964.37
2018-04-12T06:04:10.258Z,964.17
2018-04-12T06:05:05.104Z,963.97
2018-04-12T06:06:05.992Z,964.09
2018-04-12T06:07:05.009Z,964.14
2018-04-12T06:08:05.865Z,964.26
2018-04-12T06:09:05.411Z,964.17
2018-04-12T06:10:05.280Z,964.26
2018-04-12T06:11:05.732Z,964.34
2018-04-12T06:12:05.559Z,964.26
2018-04-12T06:13:05.676Z,964.20
2018-04-12T06:14:05.263Z,964.23
2018-04-12T06:15:05.926Z,964.26
2018-04-12T06:16:05.497Z,964.37
2018-04-12T06:17:05.212Z,964.25
2018-04-12T06:18:05.071Z,964.25
2018-04-12T06:19:05.785Z,964.36
2018-04-12T06:20:05.829Z,964.30
2018-04-12T06:21:05.445Z,964.27
2018-04-12T06:22:05.393Z,964.19
2018-04-12T06:23:05.573Z,964.24
2018-04-12T06:24:10.031Z,964.21
2018-04-12T06:25:05.660Z,964.18
2018-04-12T06:26:05.688Z,964.26
2018-04-12T06:27:05.322Z,964.11
2018-04-12T06:28:05.060Z,964.05
2018-04-12T06:29:05.232Z,964.12
2018-04-12T06:30:05.311Z,964.08
2018-04-12T06:31:05.471Z,964.16
2018-04-12T06:32:15.501Z,964.21
2018-04-12T06:33:05.504Z,964.26
2018-04-12T06:34:05.179Z,964.26
2018-04-12T06:35:06.928Z,964.23
2018-04-12T06:36:05.954Z,964.00
2018-04-12T06:37:05.516Z,964.14
2018-04-12T06:38:05.503Z,964.22
2018-04-12T06:39:05.053Z,964.16
2018-04-12T06:40:05.170Z,964.33
2018-04-12T06:41:06.012Z,964.28
2018-04-12T06:42:05.642Z,964.27
2018-04-12T06:43:10.146Z,964.24
2018-04-12T06:44:05.537Z,964.35
2018-04-12T06:45:05.100Z,964.38
2018-04-12T06:46:05.876Z,964.38
2018-04-12T06:47:05.643Z,964.29
2018-04-12T06:48:05.411Z,964.32
2018-04-12T06:49:05.016Z,964.15
2018-04-12T06:50:06.633Z,964.14
2018-04-12T06:51:05.843Z,964.17
2018-04-12T06:52:05.742Z,964.20
2018-04-12T06:53:05.699Z,964.23
2018-04-12T06:54:05.112Z,964.17
2018-04-12T06:55:05.973Z,964.19
2018-04-12T06:56:05.307Z,964.16
2018-04-12T06:57:05.871Z,964.33
2018-04-12T06:58:08.510Z,964.21
2018-04-12T06:59:06.221Z,964.41
2018-04-12T07:00:10.380Z,964.33
2018-04-12T07:01:05.434Z,964.30
2018-04-12T07:02:11.040Z,964.24
2018-04-12T07:03:07.071Z,964.46
2018-04-12T07:04:05.193Z,964.26
2018-04-12T07:05:05.593Z,964.38
2018-04-12T07:06:06.736Z,964.40
2018-04-12T07:07:05.802Z,964.43
2018-04-12T07:08:05.488Z,964.46
2018-04-12T07:09:05.405Z,964.28
2018-04-12T07:10:05.912Z,964.48
2018-04-12T07:11:05.850Z,964.34
2018-04-12T07:12:05.646Z,964.26
2018-04-12T07:13:05.283Z,964.26
2018-04-12T07:14:05.504Z,964.29
2018-04-12T07:15:10.449Z,964.32
2018-04-12T07:16:05.171Z,964.23
2018-04-12T07:17:06.374Z,964.03
2018-04-12T07:18:06.283Z,964.27
2018-04-12T07:19:05.578Z,964.24
2018-04-12T07:20:05.414Z,964.16
2018-04-12T07:21:05.930Z,964.30
2018-04-12T07:22:10.231Z,964.33
2018-04-12T07:23:05.409Z,964.22
2018-04-12T07:24:05.444Z,964.25
2018-04-12T07:25:10.739Z,964.37
2018-04-12T07:26:05.721Z,964.34
2018-04-12T07:27:05.293Z,964.40
2018-04-12T07:28:05.162Z,964.34
2018-04-12T07:29:05.783Z,964.29
2018-04-12T07:30:05.891Z,964.26
2018-04-12T07:31:05.561Z,964.35
2018-04-12T07:32:05.712Z,964.26
2018-04-12T07:33:05.794Z,964.35
2018-04-12T07:34:06.127Z,964.41
2018-04-12T07:35:10.477Z,964.49
2018-04-12T07:36:08.270Z,964.41
2018-04-12T07:37:05.456Z,964.72
2018-04-12T07:38:05.415Z,964.49
2018-04-12T07:39:05.715Z,964.55
2018-04-12T07:40:05.554Z,964.61
2018-04-12T07:41:05.406Z,964.52
2018-04-12T07:42:05.649Z,964.58
2018-04-12T07:43:05.299Z,964.38
2018-04-12T07:44:05.764Z,964.35
2018-04-12T07:45:05.868Z,964.35
2018-04-12T07:46:05.725Z,964.35
2018-04-12T07:47:05.264Z,964.32
2018-04-12T07:48:05.448Z,964.23
2018-04-12T07:49:06.145Z,964.20
2018-04-12T07:50:05.876Z,964.23
2018-04-12T07:51:05.642Z,964.14
2018-04-12T07:52:05.713Z,964.08
2018-04-12T07:53:05.293Z,964.05
2018-04-12T07:54:05.414Z,964.01
2018-04-12T07:55:05.188Z,964.03
2018-04-12T07:56:05.705Z,963.94
2018-04-12T07:57:05.747Z,963.93
2018-04-12T07:58:05.704Z,964.00
2018-04-12T07:59:05.639Z,963.99
2018-04-12T08:00:05.820Z,963.92
2018-04-12T08:01:05.463Z,964.00
2018-04-12T08:02:05.340Z,963.96
2018-04-12T08:03:05.621Z,963.79
2018-04-12T08:04:05.500Z,963.81
2018-04-12T08:05:10.945Z,963.89
2018-04-12T08:06:05.912Z,963.85
2018-04-12T08:07:05.862Z,963.76
2018-04-12T08:08:05.616Z,963.81
2018-04-12T08:09:05.113Z,963.77
2018-04-12T08:10:05.551Z,963.85
2018-04-12T08:11:05.339Z,963.73
2018-04-12T08:12:05.642Z,963.77
2018-04-12T08:13:05.123Z,963.82
2018-04-12T08:14:05.358Z,963.87
2018-04-12T08:15:05.044Z,963.78
2018-04-12T08:16:05.647Z,963.89
2018-04-12T08:17:05.433Z,963.79
2018-04-12T08:18:05.676Z,963.82
2018-04-12T08:19:05.890Z,963.78
2018-04-12T08:20:05.950Z,963.80
2018-04-12T08:21:05.175Z,963.71
2018-04-12T08:22:07.097Z,963.73
2018-04-12T08:23:05.163Z,963.81
2018-04-12T08:24:05.199Z,963.81
2018-04-12T08:25:05.491Z,963.72
2018-04-12T08:26:10.507Z,963.68
2018-04-12T08:27:05.759Z,963.71
2018-04-12T08:28:06.015Z,963.82
2018-04-12T08:29:05.241Z,964.03
2018-04-12T08:30:05.850Z,963.83
2018-04-12T08:31:05.679Z,964.05
2018-04-12T08:32:05.628Z,963.88
2018-04-12T08:33:05.609Z,964.01
2018-04-12T08:34:05.064Z,964.07
2018-04-12T08:35:06.067Z,964.15
2018-04-12T08:36:05.246Z,964.26
2018-04-12T08:37:05.106Z,964.14
2018-04-12T08:38:05.809Z,964.14
2018-04-12T08:39:05.659Z,964.16
2018-04-12T08:40:05.242Z,964.10
2018-04-12T08:41:05.351Z,964.36
2018-04-12T08:42:05.104Z,964.29
2018-04-12T08:43:05.767Z,964.29
2018-04-12T08:44:05.632Z,964.32
2018-04-12T08:45:05.590Z,964.20
2018-04-12T08:46:05.761Z,964.11
2018-04-12T08:47:05.863Z,964.07
2018-04-12T08:48:05.967Z,964.04
2018-04-12T08:49:05.276Z,964.06
2018-04-12T08:50:05.058Z,963.94
2018-04-12T08:51:04.948Z,964.17
2018-04-12T08:52:07.267Z,964.17
2018-04-12T08:53:05.688Z,964.08
2018-04-12T08:54:05.122Z,964.16
2018-04-12T08:55:06.003Z,964.13
2018-04-12T08:56:05.260Z,964.18
2018-04-12T08:57:05.637Z,964.18
2018-04-12T08:58:05.007Z,964.18
2018-04-12T08:59:05.226Z,964.20
2018-04-12T09:00:05.339Z,964.23
2018-04-12T09:01:05.948Z,964.28
2018-04-12T09:02:05.939Z,964.25
2018-04-12T09:03:05.820Z,964.25
2018-04-12T09:04:05.825Z,964.33
2018-04-12T09:05:05.550Z,964.30
2018-04-12T09:06:05.334Z,964.35
2018-04-12T09:07:06.167Z,964.26
2018-04-12T09:08:05.329Z,964.20
2018-04-12T09:09:05.837Z,964.37
2018-04-12T09:10:05.714Z,964.45
2018-04-12T09:11:05.508Z,964.48
2018-04-12T09:12:05.151Z,964.13
2018-04-12T09:13:05.869Z,964.36
2018-04-12T09:14:05.996Z,964.19
2018-04-12T09:15:05.954Z,964.10
2018-04-12T09:16:05.310Z,964.13
2018-04-12T09:17:06.309Z,964.27
2018-04-12T09:18:05.775Z,964.30
2018-04-12T09:19:05.626Z,964.18
2018-04-12T09:20:05.583Z,964.21
2018-04-12T09:21:06.057Z,964.06
2018-04-12T09:22:06.547Z,964.17
2018-04-12T09:23:10.395Z,964.17
2018-04-12T09:24:05.501Z,964.17
2018-04-12T09:25:05.916Z,963.99
2018-04-12T09:26:05.369Z,964.16
2018-04-12T09:27:05.686Z,964.08
2018-04-12T09:28:05.387Z,964.16
2018-04-12T09:29:05.498Z,964.04
2018-04-12T09:30:05.358Z,964.07
2018-04-12T09:31:05.513Z,963.95
2018-04-12T09:32:05.765Z,963.94
2018-04-12T09:33:05.869Z,963.89
2018-04-12T09:34:05.400Z,963.89
2018-04-12T09:35:05.207Z,963.90
2018-04-12T09:36:05.853Z,963.88
2018-04-12T09:37:06.351Z,963.90
2018-04-12T09:38:05.855Z,963.82
2018-04-12T09:39:05.478Z,963.95
2018-04-12T09:40:05.523Z,963.89
2018-04-12T09:41:06.042Z,963.84
2018-04-12T09:42:06.795Z,963.97
2018-04-12T09:43:05.828Z,963.90
2018-04-12T09:44:05.885Z,963.90
2018-04-12T09:45:05.450Z,963.88
2018-04-12T09:46:05.562Z,963.98
2018-04-12T09:47:05.071Z,963.98
2018-04-12T09:48:05.686Z,963.98
2018-04-12T09:49:05.647Z,963.89
2018-04-12T09:50:05.397Z,964.00
2018-04-12T09:51:05.507Z,964.08
2018-04-12T09:52:05.215Z,964.02
2018-04-12T09:53:05.842Z,964.02
2018-04-12T09:54:05.096Z,964.07
2018-04-12T09:55:05.058Z,964.10
2018-04-12T09:56:05.925Z,964.09
2018-04-12T09:57:05.870Z,964.06
2018-04-12T09:58:05.967Z,964.12
2018-04-12T09:59:05.395Z,964.14
2018-04-12T10:00:05.581Z,964.17
2018-04-12T10:01:05.030Z,964.11
2018-04-12T10:02:05.174Z,964.13
2018-04-12T10:03:08.711Z,964.01
2018-04-12T10:04:05.612Z,963.95
2018-04-12T10:05:05.306Z,963.89
2018-04-12T10:06:05.245Z,964.06
2018-04-12T10:07:05.489Z,964.00
2018-04-12T10:08:06.071Z,963.83
2018-04-12T10:09:07.927Z,963.96
2018-04-12T10:10:05.747Z,963.90
2018-04-12T10:11:05.638Z,963.95
2018-04-12T10:12:05.024Z,963.98
2018-04-12T10:13:05.835Z,963.92
2018-04-12T10:14:05.617Z,963.89
2018-04-12T10:15:05.138Z,963.80
2018-04-12T10:16:05.352Z,963.72
2018-04-12T10:17:05.636Z,963.83
2018-04-12T10:18:05.755Z,963.80
2018-04-12T10:19:10.754Z,963.79
2018-04-12T10:20:06.099Z,963.79
2018-04-12T10:21:05.608Z,963.89
2018-04-12T10:22:05.343Z,963.82
2018-04-12T10:23:05.065Z,963.89
2018-04-12T10:24:04.989Z,963.87
2018-04-12T10:25:05.919Z,963.81
2018-04-12T10:26:05.362Z,963.75
2018-04-12T10:27:06.438Z,963.78
2018-04-12T10:28:05.464Z,963.72
2018-04-12T10:29:05.318Z,963.63
2018-04-12T10:30:05.814Z,963.75
2018-04-12T10:31:05.828Z,963.74
2018-04-12T10:32:05.423Z,963.77
2018-04-12T10:33:05.761Z,963.74
2018-04-12T10:34:05.068Z,963.68
2018-04-12T10:35:05.390Z,963.56
2018-04-12T10:36:05.419Z,963.79
2018-04-12T10:37:06.752Z,963.78
2018-04-12T10:38:05.760Z,963.70
2018-04-12T10:39:05.399Z,963.66
2018-04-12T10:40:05.289Z,963.61
2018-04-12T10:41:05.189Z,963.78
2018-04-12T10:42:06.282Z,963.66
2018-04-12T10:43:06.671Z,963.69
2018-04-12T10:44:05.899Z,963.69
2018-04-12T10:45:05.809Z,963.71
2018-04-12T10:46:05.879Z,963.68
2018-04-12T10:47:05.591Z,963.70
2018-04-12T10:48:05.652Z,963.67
2018-04-12T10:49:10.435Z,963.67
2018-04-12T10:50:05.351Z,963.67
2018-04-12T10:51:05.907Z,963.58
2018-04-12T10:52:05.514Z,963.63
2018-04-12T10:53:06.010Z,963.68
2018-04-12T10:54:04.945Z,963.65
2018-04-12T10:55:05.367Z,963.68
2018-04-12T10:56:05.453Z,963.59
2018-04-12T10:57:05.420Z,963.67
2018-04-12T10:58:05.620Z,963.89
2018-04-12T10:59:05.512Z,963.64
2018-04-12T11:00:05.124Z,963.72
2018-04-12T11:01:05.232Z,963.60
2018-04-12T11:02:05.547Z,963.63
2018-04-12T11:03:05.363Z,963.77
2018-04-12T11:04:11.037Z,963.76
2018-04-12T11:05:05.922Z,963.64
2018-04-12T11:06:05.101Z,963.61
2018-04-12T11:07:05.247Z,963.55
2018-04-12T11:08:05.024Z,963.58
2018-04-12T11:09:10.169Z,963.53
2018-04-12T11:10:05.192Z,963.50
2018-04-12T11:11:10.344Z,963.64
2018-04-12T11:12:05.225Z,963.58
2018-04-12T11:13:05.882Z,963.67
2018-04-12T11:14:06.139Z,963.43
2018-04-12T11:15:10.249Z,963.49
2018-04-12T11:16:05.683Z,963.46
2018-04-12T11:17:05.800Z,963.49
2018-04-12T11:18:05.332Z,963.40
2018-04-12T11:19:05.916Z,963.36
2018-04-12T11:20:06.026Z,963.36
2018-04-12T11:21:05.635Z,963.44
2018-04-12T11:22:10.197Z,963.50
2018-04-12T11:23:05.939Z,963.38
2018-04-12T11:24:05.627Z,963.32
2018-04-12T11:25:05.687Z,963.40
2018-04-12T11:26:05.759Z,963.32
2018-04-12T11:27:05.758Z,963.43
2018-04-12T11:28:06.038Z,963.37
2018-04-12T11:29:05.595Z,963.26
2018-04-12T11:30:05.005Z,963.37
2018-04-12T11:31:05.768Z,963.29
2018-04-12T11:32:05.685Z,963.55
2018-04-12T11:33:05.885Z,963.35
2018-04-12T11:34:06.291Z,963.41
2018-04-12T11:35:05.487Z,963.38
2018-04-12T11:36:05.683Z,963.56
2018-04-12T11:37:04.976Z,963.47
2018-04-12T11:38:05.616Z,963.38
2018-04-12T11:39:05.740Z,963.44
2018-04-12T11:40:05.503Z,963.41
2018-04-12T11:41:05.131Z,963.47
2018-04-12T11:42:05.549Z,963.56
2018-04-12T11:43:05.788Z,963.53
2018-04-12T11:44:05.579Z,963.59
2018-04-12T11:45:05.188Z,963.53
2018-04-12T11:46:05.272Z,963.41
2018-04-12T11:47:05.176Z,963.56
2018-04-12T11:48:05.715Z,963.50
2018-04-12T11:49:05.781Z,963.58
2018-04-12T11:50:05.667Z,963.50
2018-04-12T11:51:05.731Z,963.53
2018-04-12T11:52:05.351Z,963.50
2018-04-12T11:53:05.943Z,963.61
2018-04-12T11:54:05.641Z,963.61
2018-04-12T11:55:05.518Z,963.67
2018-04-12T11:56:05.468Z,963.72
2018-04-12T11:57:05.971Z,963.54
2018-04-12T11:58:05.666Z,963.57
2018-04-12T11:59:05.573Z,963.77
2018-04-12T12:00:05.987Z,963.62
2018-04-12T12:01:05.120Z,963.58
2018-04-12T12:02:06.291Z,963.58
2018-04-12T12:03:10.560Z,963.52
2018-04-12T12:04:05.501Z,963.69
2018-04-12T12:05:05.065Z,963.75
2018-04-12T12:06:05.928Z,963.59
2018-04-12T12:07:05.370Z,963.65
2018-04-12T12:08:05.070Z,963.56
2018-04-12T12:09:05.733Z,963.56
2018-04-12T12:10:05.638Z,963.50
2018-04-12T12:11:05.257Z,963.62
2018-04-12T12:12:05.161Z,963.56
2018-04-12T12:13:05.844Z,963.56
2018-04-12T12:14:05.988Z,963.71
2018-04-12T12:15:05.629Z,963.65
2018-04-12T12:16:05.577Z,963.71
2018-04-12T12:17:05.621Z,963.74
2018-04-12T12:18:05.109Z,963.73
2018-04-12T12:19:05.793Z,963.88
2018-04-12T12:20:05.160Z,963.85
2018-04-12T12:21:05.606Z,963.84
2018-04-12T12:22:05.455Z,963.75
2018-04-12T12:23:05.408Z,963.78
2018-04-12T12:24:05.234Z,963.66
2018-04-12T12:25:05.872Z,963.78
2018-04-12T12:26:05.171Z,963.78
2018-04-12T12:27:05.056Z,963.81
2018-04-12T12:28:06.005Z,963.87